createdAt,value
2022-10-16T00:00:16.443Z,14.57
2022-10-16T00:01:16.874Z,14.53
2022-10-16T00:02:16.683Z,14.53
2022-10-16T00:03:17.264Z,14.50
2022-10-16T00:04:16.736Z,14.50
2022-10-16T00:05:17.195Z,14.52
2022-10-16T00:06:16.679Z,14.50
2022-10-16T00:07:17.129Z,14.53
2022-10-16T00:08:16.590Z,14.53
2022-10-16T00:09:17.050Z,14.53
2022-10-16T00:10:16.502Z,14.53
2022-10-16T00:11:16.929Z,14.53
2022-10-16T00:12:16.842Z,14.55
2022-10-16T00:13:17.321Z,14.57
2022-10-16T00:14:16.797Z,14.60
2022-10-16T00:15:17.243Z,14.59
2022-10-16T00:16:16.719Z,14.60
2022-10-16T00:17:17.163Z,14.59
2022-10-16T00:18:16.664Z,14.62
2022-10-16T00:19:17.123Z,14.60
2022-10-16T00:20:16.589Z,14.59
2022-10-16T00:21:17.035Z,14.60
2022-10-16T00:22:16.893Z,14.59
2022-10-16T00:23:16.353Z,14.59
2022-10-16T00:24:16.827Z,14.55
2022-10-16T00:25:16.290Z,14.55
2022-10-16T00:26:16.736Z,14.55
2022-10-16T00:27:17.156Z,14.55
2022-10-16T00:28:16.575Z,14.53
2022-10-16T00:29:17.020Z,14.52
2022-10-16T00:30:16.448Z,14.49
2022-10-16T00:31:16.893Z,14.49
2022-10-16T00:32:16.451Z,14.44
2022-10-16T00:33:16.895Z,14.47
2022-10-16T00:34:16.357Z,14.47
2022-10-16T00:35:16.842Z,14.47
2022-10-16T00:36:16.355Z,14.47
2022-10-16T00:37:16.819Z,14.46
2022-10-16T00:38:17.308Z,14.44
2022-10-16T00:39:16.792Z,14.46
2022-10-16T00:40:17.258Z,14.43
2022-10-16T00:41:16.703Z,14.43
2022-10-16T00:42:16.749Z,14.43
2022-10-16T00:43:17.180Z,14.46
2022-10-16T00:44:16.591Z,14.43
2022-10-16T00:45:17.056Z,14.40
2022-10-16T00:46:16.478Z,14.37
2022-10-16T00:47:16.908Z,14.37
2022-10-16T00:48:16.376Z,14.36
2022-10-16T00:49:16.841Z,14.36
2022-10-16T00:50:16.293Z,14.36
2022-10-16T00:51:16.747Z,14.37
2022-10-16T00:52:17.322Z,14.35
2022-10-16T00:53:16.802Z,14.33
2022-10-16T00:54:17.260Z,14.36
2022-10-16T00:55:16.712Z,14.36
2022-10-16T00:56:17.152Z,14.37
2022-10-16T00:57:16.622Z,14.39
2022-10-16T00:58:17.047Z,14.39
2022-10-16T00:59:16.499Z,14.36
2022-10-16T01:00:16.937Z,14.33
2022-10-16T01:01:16.405Z,14.37
2022-10-16T01:02:16.490Z,14.40
2022-10-16T01:03:16.955Z,14.37
2022-10-16T01:04:16.429Z,14.39
2022-10-16T01:05:16.904Z,14.40
2022-10-16T01:06:16.456Z,14.40
2022-10-16T01:07:17.066Z,14.39
2022-10-16T01:08:16.574Z,14.39
2022-10-16T01:09:17.024Z,14.40
2022-10-16T01:10:16.454Z,14.39
2022-10-16T01:11:16.882Z,14.44
2022-10-16T01:12:16.432Z,14.41
2022-10-16T01:13:16.873Z,14.43
2022-10-16T01:14:16.327Z,14.39
2022-10-16T01:15:16.748Z,14.40
2022-10-16T01:16:17.220Z,14.46
2022-10-16T01:17:16.693Z,14.46
2022-10-16T01:18:17.165Z,14.44
2022-10-16T01:19:16.645Z,14.49
2022-10-16T01:20:17.093Z,14.50
2022-10-16T01:21:16.565Z,14.50
2022-10-16T01:22:16.328Z,14.53
2022-10-16T01:23:16.809Z,14.53
2022-10-16T01:24:16.290Z,14.49
2022-10-16T01:25:16.716Z,14.52
2022-10-16T01:26:17.136Z,14.55
2022-10-16T01:27:16.585Z,14.50
2022-10-16T01:28:17.012Z,14.52
2022-10-16T01:29:16.452Z,14.55
2022-10-16T01:30:16.902Z,14.55
2022-10-16T01:31:16.342Z,14.60
2022-10-16T01:32:16.758Z,14.60
2022-10-16T01:33:17.276Z,14.64
2022-10-16T01:34:16.741Z,14.62
2022-10-16T01:35:17.196Z,14.62
2022-10-16T01:36:16.685Z,14.64
2022-10-16T01:37:17.144Z,14.59
2022-10-16T01:38:16.608Z,14.62
2022-10-16T01:39:17.043Z,14.59
2022-10-16T01:40:16.470Z,14.57
2022-10-16T01:41:16.938Z,14.59
2022-10-16T01:42:16.753Z,14.57
2022-10-16T01:43:17.196Z,14.56
2022-10-16T01:44:16.623Z,14.56
2022-10-16T01:45:17.061Z,14.60
2022-10-16T01:46:16.485Z,14.56
2022-10-16T01:47:16.939Z,14.59
2022-10-16T01:48:16.402Z,14.62
2022-10-16T01:49:16.873Z,14.59
2022-10-16T01:50:16.333Z,14.56
2022-10-16T01:51:16.796Z,14.56
2022-10-16T01:52:17.216Z,14.57
2022-10-16T01:53:16.659Z,14.56
2022-10-16T01:54:17.130Z,14.55
2022-10-16T01:55:16.574Z,14.53
2022-10-16T01:56:16.995Z,14.56
2022-10-16T01:57:16.410Z,14.55
2022-10-16T01:58:16.851Z,14.55
2022-10-16T01:59:17.287Z,14.55
2022-10-16T02:00:16.724Z,14.59
2022-10-16T02:02:16.917Z,14.56
2022-10-16T02:03:16.384Z,14.55
2022-10-16T02:04:16.897Z,14.56
2022-10-16T02:05:16.398Z,14.56
2022-10-16T02:06:16.871Z,14.56
2022-10-16T02:07:16.320Z,14.62
2022-10-16T02:08:16.765Z,14.62
2022-10-16T02:09:17.229Z,14.63
2022-10-16T02:10:16.723Z,14.66
2022-10-16T02:11:17.186Z,14.68
2022-10-16T02:12:16.668Z,14.73
2022-10-16T02:13:17.105Z,14.71
2022-10-16T02:14:16.545Z,14.68
2022-10-16T02:15:16.996Z,14.73
2022-10-16T02:16:16.428Z,14.68
2022-10-16T02:17:16.863Z,14.71
2022-10-16T02:18:16.351Z,14.70
2022-10-16T02:19:16.826Z,14.71
2022-10-16T02:20:17.276Z,14.71
2022-10-16T02:21:16.736Z,14.74
2022-10-16T02:22:16.832Z,14.78
2022-10-16T02:23:17.299Z,14.80
2022-10-16T02:24:16.792Z,14.78
2022-10-16T02:25:17.291Z,14.78
2022-10-16T02:26:16.744Z,14.77
2022-10-16T02:27:17.170Z,14.76
2022-10-16T02:28:16.597Z,14.77
2022-10-16T02:29:17.022Z,14.76
2022-10-16T02:30:16.458Z,14.73
2022-10-16T02:31:16.912Z,14.73
2022-10-16T02:32:16.557Z,14.78
2022-10-16T02:33:17.127Z,14.77
2022-10-16T02:34:16.596Z,14.77
2022-10-16T02:35:17.053Z,14.81
2022-10-16T02:36:16.537Z,14.74
2022-10-16T02:37:16.997Z,14.76
2022-10-16T02:38:16.509Z,14.74
2022-10-16T02:39:16.968Z,14.73
2022-10-16T02:40:17.488Z,14.71
2022-10-16T02:41:17.254Z,14.71
2022-10-16T02:42:16.670Z,14.74
2022-10-16T02:43:17.091Z,14.74
2022-10-16T02:44:16.545Z,14.70
2022-10-16T02:45:16.660Z,14.67
2022-10-16T02:46:17.099Z,14.68
2022-10-16T02:47:16.558Z,14.67
2022-10-16T02:48:17.026Z,14.67
2022-10-16T02:49:16.495Z,14.66
2022-10-16T02:50:16.940Z,14.67
2022-10-16T02:51:16.436Z,14.66
2022-10-16T02:52:16.999Z,14.70
2022-10-16T02:53:16.445Z,14.71
2022-10-16T02:54:16.894Z,14.67
2022-10-16T02:55:16.315Z,14.71
2022-10-16T02:56:16.793Z,14.74
2022-10-16T02:57:17.252Z,14.76
2022-10-16T02:58:16.680Z,14.73
2022-10-16T02:59:17.131Z,14.71
2022-10-16T03:00:16.556Z,14.71
2022-10-16T03:01:17.086Z,14.68
2022-10-16T03:02:16.668Z,14.67
2022-10-16T03:03:17.152Z,14.67
2022-10-16T03:04:16.621Z,14.67
2022-10-16T03:05:17.121Z,14.64
2022-10-16T03:06:16.732Z,14.73
2022-10-16T03:07:17.203Z,14.70
2022-10-16T03:08:16.688Z,14.68
2022-10-16T03:09:17.149Z,14.66
2022-10-16T03:10:16.575Z,14.67
2022-10-16T03:11:16.994Z,14.66
2022-10-16T03:12:16.707Z,14.66
2022-10-16T03:13:17.135Z,14.64
2022-10-16T03:14:16.610Z,14.62
2022-10-16T03:15:17.187Z,14.60
2022-10-16T03:16:16.654Z,14.63
2022-10-16T03:17:17.111Z,14.59
2022-10-16T03:18:16.580Z,14.60
2022-10-16T03:19:17.045Z,14.60
2022-10-16T03:20:16.510Z,14.59
2022-10-16T03:21:16.988Z,14.56
2022-10-16T03:22:16.696Z,14.55
2022-10-16T03:23:17.249Z,14.57
2022-10-16T03:24:16.854Z,14.60
2022-10-16T03:25:17.271Z,14.60
2022-10-16T03:26:16.738Z,14.63
2022-10-16T03:27:17.168Z,14.57
2022-10-16T03:28:16.591Z,14.62
2022-10-16T03:29:17.022Z,14.57
2022-10-16T03:30:16.473Z,14.57
2022-10-16T03:31:16.915Z,14.56
2022-10-16T03:32:16.604Z,14.53
2022-10-16T03:33:17.093Z,14.57
2022-10-16T03:34:16.534Z,14.56
2022-10-16T03:35:17.017Z,14.57
2022-10-16T03:36:16.486Z,14.55
2022-10-16T03:37:16.947Z,14.50
2022-10-16T03:38:16.440Z,14.52
2022-10-16T03:39:17.038Z,14.50
2022-10-16T03:40:16.469Z,14.52
2022-10-16T03:41:16.911Z,14.52
2022-10-16T03:42:16.340Z,14.50
2022-10-16T03:43:16.778Z,14.50
2022-10-16T03:44:17.234Z,14.46
2022-10-16T03:45:16.660Z,14.46
2022-10-16T03:46:17.124Z,14.49
2022-10-16T03:47:16.584Z,14.52
2022-10-16T03:48:17.073Z,14.55
2022-10-16T03:49:16.557Z,14.50
2022-10-16T03:50:17.055Z,14.52
2022-10-16T03:51:16.548Z,14.50
2022-10-16T03:52:16.574Z,14.49
2022-10-16T03:53:17.110Z,14.52
2022-10-16T03:54:16.561Z,14.52
2022-10-16T03:55:16.979Z,14.55
2022-10-16T03:56:16.423Z,14.49
2022-10-16T03:57:16.898Z,14.52
2022-10-16T03:58:16.332Z,14.55
2022-10-16T03:59:16.758Z,14.60
2022-10-16T04:00:17.190Z,14.56
2022-10-16T04:01:16.658Z,14.57
2022-10-16T04:02:17.192Z,14.56
2022-10-16T04:03:16.672Z,14.55
2022-10-16T04:04:17.144Z,14.59
2022-10-16T04:05:16.632Z,14.59
2022-10-16T04:06:17.075Z,14.56
2022-10-16T04:07:16.522Z,14.55
2022-10-16T04:08:16.993Z,14.55
2022-10-16T04:09:16.432Z,14.57
2022-10-16T04:10:16.882Z,14.49
2022-10-16T04:11:16.346Z,14.53
2022-10-16T04:12:17.038Z,14.50
2022-10-16T04:13:16.492Z,14.56
2022-10-16T04:14:17.025Z,14.56
2022-10-16T04:15:16.484Z,14.56
2022-10-16T04:16:16.962Z,14.59
2022-10-16T04:17:16.405Z,14.64
2022-10-16T04:18:16.897Z,14.62
2022-10-16T04:19:16.367Z,14.63
2022-10-16T04:20:16.830Z,14.63
2022-10-16T04:21:17.279Z,14.60
2022-10-16T04:22:16.865Z,14.62
2022-10-16T04:23:16.454Z,14.59
2022-10-16T04:24:16.928Z,14.57
2022-10-16T04:25:16.430Z,14.57
2022-10-16T04:26:16.866Z,14.57
2022-10-16T04:27:16.291Z,14.57
2022-10-16T04:28:16.709Z,14.56
2022-10-16T04:29:17.173Z,14.57
2022-10-16T04:30:16.638Z,14.57
2022-10-16T04:31:17.115Z,14.57
2022-10-16T04:32:16.667Z,14.57
2022-10-16T04:33:17.162Z,14.56
2022-10-16T04:34:16.622Z,14.66
2022-10-16T04:35:17.072Z,14.60
2022-10-16T04:36:16.539Z,14.64
2022-10-16T04:37:17.003Z,14.64
2022-10-16T04:38:16.446Z,14.60
2022-10-16T04:39:16.887Z,14.62
2022-10-16T04:40:16.310Z,14.66
2022-10-16T04:41:16.753Z,14.66
2022-10-16T04:42:16.593Z,14.66
2022-10-16T04:43:17.060Z,14.67
2022-10-16T04:44:16.796Z,14.68
2022-10-16T04:45:17.354Z,14.68
2022-10-16T04:46:16.850Z,14.67
2022-10-16T04:47:16.310Z,14.64
2022-10-16T04:48:16.802Z,14.63
2022-10-16T04:49:17.304Z,14.62
2022-10-16T04:50:16.815Z,14.63
2022-10-16T04:51:17.269Z,14.60
2022-10-16T04:52:16.914Z,14.62
2022-10-16T04:53:16.359Z,14.60
2022-10-16T04:54:16.829Z,14.57
2022-10-16T04:55:17.270Z,14.60
2022-10-16T04:56:16.694Z,14.57
2022-10-16T04:57:17.119Z,14.57
2022-10-16T04:58:16.573Z,14.59
2022-10-16T04:59:16.996Z,14.57
2022-10-16T05:00:16.458Z,14.63
2022-10-16T05:01:16.951Z,14.60
2022-10-16T05:02:16.701Z,14.56
2022-10-16T05:03:17.349Z,14.57
2022-10-16T05:04:17.167Z,14.55
2022-10-16T05:05:16.630Z,14.56
2022-10-16T05:06:17.090Z,14.53
2022-10-16T05:07:16.565Z,14.55
2022-10-16T05:08:17.025Z,14.55
2022-10-16T05:09:16.445Z,14.53
2022-10-16T05:10:16.913Z,14.52
2022-10-16T05:11:16.336Z,14.50
2022-10-16T05:12:16.707Z,14.49
2022-10-16T05:13:17.148Z,14.49
2022-10-16T05:14:16.632Z,14.47
2022-10-16T05:15:17.123Z,14.47
2022-10-16T05:16:16.596Z,14.46
2022-10-16T05:17:17.085Z,14.43
2022-10-16T05:18:16.541Z,14.40
2022-10-16T05:19:28.211Z,14.40
2022-10-16T05:20:16.478Z,14.39
2022-10-16T05:21:16.932Z,14.35
2022-10-16T05:22:16.301Z,14.32
2022-10-16T05:23:16.803Z,14.33
2022-10-16T05:24:17.232Z,14.30
2022-10-16T05:25:16.804Z,14.28
2022-10-16T05:26:16.291Z,14.28
2022-10-16T05:27:16.715Z,14.23
2022-10-16T05:28:17.189Z,14.25
2022-10-16T05:29:16.624Z,14.22
2022-10-16T05:30:17.132Z,14.16
2022-10-16T05:31:16.621Z,14.19
2022-10-16T05:32:17.130Z,14.18
2022-10-16T05:33:16.606Z,14.13
2022-10-16T05:34:17.089Z,14.13
2022-10-16T05:35:16.667Z,14.12
2022-10-16T05:36:17.102Z,14.18
2022-10-16T05:37:16.533Z,14.20
2022-10-16T05:38:16.980Z,14.20
2022-10-16T05:39:16.409Z,14.20
2022-10-16T05:40:16.890Z,14.12
2022-10-16T05:41:16.331Z,14.09
2022-10-16T05:42:16.837Z,14.13
2022-10-16T05:43:17.329Z,14.16
2022-10-16T05:44:16.825Z,14.20
2022-10-16T05:45:16.389Z,14.20
2022-10-16T05:46:16.890Z,14.20
2022-10-16T05:47:16.362Z,14.20
2022-10-16T05:48:16.803Z,14.22
2022-10-16T05:49:17.258Z,14.19
2022-10-16T05:50:16.741Z,14.20
2022-10-16T05:51:17.216Z,14.18
2022-10-16T05:52:16.864Z,14.19
2022-10-16T05:53:16.301Z,14.19
2022-10-16T05:54:16.783Z,14.20
2022-10-16T05:55:16.302Z,14.22
2022-10-16T05:56:16.748Z,14.20
2022-10-16T05:57:17.212Z,14.22
2022-10-16T05:58:16.651Z,14.20
2022-10-16T05:59:17.109Z,14.23
2022-10-16T06:00:16.568Z,14.25
2022-10-16T06:01:17.095Z,14.26
2022-10-16T06:02:16.465Z,14.25
2022-10-16T06:03:16.912Z,14.26
2022-10-16T06:04:16.354Z,14.23
2022-10-16T06:05:16.811Z,14.22
2022-10-16T06:06:17.252Z,14.26
2022-10-16T06:07:16.697Z,14.28
2022-10-16T06:08:17.170Z,14.25
2022-10-16T06:09:16.600Z,14.26
2022-10-16T06:10:17.067Z,14.29
2022-10-16T06:11:16.528Z,14.30
2022-10-16T06:12:17.113Z,14.32
2022-10-16T06:13:16.573Z,14.30
2022-10-16T06:14:17.035Z,14.30
2022-10-16T06:15:16.536Z,14.32
2022-10-16T06:16:17.016Z,14.32
2022-10-16T06:17:16.471Z,14.32
2022-10-16T06:18:16.936Z,14.35
2022-10-16T06:19:16.399Z,14.33
2022-10-16T06:20:16.902Z,14.36
2022-10-16T06:21:16.331Z,14.35
2022-10-16T06:22:16.784Z,14.37
2022-10-16T06:23:17.243Z,14.37
2022-10-16T06:24:16.658Z,14.40
2022-10-16T06:25:17.080Z,14.43
2022-10-16T06:26:16.558Z,14.40
2022-10-16T06:27:17.040Z,14.41
2022-10-16T06:28:16.536Z,14.41
2022-10-16T06:29:16.976Z,14.41
2022-10-16T06:30:16.447Z,14.40
2022-10-16T06:31:16.925Z,14.41
2022-10-16T06:32:16.698Z,14.46
2022-10-16T06:33:17.183Z,14.44
2022-10-16T06:34:16.614Z,14.43
2022-10-16T06:35:17.043Z,14.47
2022-10-16T06:36:16.519Z,14.50
2022-10-16T06:37:16.969Z,14.50
2022-10-16T06:38:16.424Z,14.53
2022-10-16T06:39:16.846Z,14.52
2022-10-16T06:40:17.327Z,14.53
2022-10-16T06:41:16.798Z,14.55
2022-10-16T06:42:17.019Z,14.53
2022-10-16T06:43:16.504Z,14.53
2022-10-16T06:44:16.976Z,14.55
2022-10-16T06:45:16.420Z,14.55
2022-10-16T06:46:16.896Z,14.56
2022-10-16T06:47:16.361Z,14.57
2022-10-16T06:48:16.805Z,14.56
2022-10-16T06:49:17.270Z,14.56
2022-10-16T06:50:16.729Z,14.57
2022-10-16T06:51:17.194Z,14.56
2022-10-16T06:52:16.824Z,14.57
2022-10-16T06:53:17.278Z,14.62
2022-10-16T06:54:16.702Z,14.64
2022-10-16T06:55:17.140Z,14.66
2022-10-16T06:56:16.583Z,14.64
2022-10-16T06:57:17.037Z,14.66
2022-10-16T06:58:16.538Z,14.66
2022-10-16T06:59:16.994Z,14.67
2022-10-16T07:00:16.519Z,14.68
2022-10-16T07:01:17.137Z,14.68
2022-10-16T07:02:16.735Z,14.71
2022-10-16T07:03:17.174Z,14.71
2022-10-16T07:04:16.614Z,14.73
2022-10-16T07:05:17.050Z,14.70
2022-10-16T07:06:16.483Z,14.71
2022-10-16T07:07:16.919Z,14.71
2022-10-16T07:08:16.346Z,14.73
2022-10-16T07:09:16.785Z,14.71
2022-10-16T07:10:16.496Z,14.71
2022-10-16T07:11:17.009Z,14.70
2022-10-16T07:12:16.617Z,14.73
2022-10-16T07:13:17.100Z,14.71
2022-10-16T07:14:16.589Z,14.77
2022-10-16T07:15:17.047Z,14.74
2022-10-16T07:16:16.523Z,14.77
2022-10-16T07:17:16.977Z,14.78
2022-10-16T07:18:16.390Z,14.78
2022-10-16T07:19:16.831Z,14.81
2022-10-16T07:20:17.299Z,14.83
2022-10-16T07:21:16.729Z,14.80
2022-10-16T07:22:16.535Z,14.81
2022-10-16T07:23:16.969Z,14.81
2022-10-16T07:24:16.394Z,14.85
2022-10-16T07:25:16.856Z,14.85
2022-10-16T07:26:16.345Z,14.90
2022-10-16T07:27:16.791Z,14.88
2022-10-16T07:28:17.273Z,14.88
2022-10-16T07:29:16.746Z,14.94
2022-10-16T07:30:17.286Z,14.95
2022-10-16T07:31:16.735Z,14.99
2022-10-16T07:32:16.495Z,15.01
2022-10-16T07:33:16.916Z,15.06
2022-10-16T07:34:16.371Z,15.08
2022-10-16T07:35:16.797Z,15.09
2022-10-16T07:36:17.222Z,15.11
2022-10-16T07:37:16.665Z,15.08
2022-10-16T07:38:17.121Z,15.09
2022-10-16T07:39:16.565Z,15.12
2022-10-16T07:40:17.021Z,15.11
2022-10-16T07:41:16.538Z,15.15
2022-10-16T07:42:16.932Z,15.21
2022-10-16T07:43:16.380Z,15.28
2022-10-16T07:44:16.875Z,15.25
2022-10-16T07:45:16.348Z,15.35
2022-10-16T07:46:16.807Z,15.39
2022-10-16T07:47:17.279Z,15.42
2022-10-16T07:48:16.706Z,15.42
2022-10-16T07:49:17.150Z,15.45
2022-10-16T07:50:16.581Z,15.54
2022-10-16T07:51:17.067Z,15.52
2022-10-16T07:52:16.542Z,15.63
2022-10-16T07:53:17.002Z,15.59
2022-10-16T07:54:16.469Z,15.59
2022-10-16T07:55:16.955Z,15.64
2022-10-16T07:56:16.449Z,15.71
2022-10-16T07:57:16.932Z,15.76
2022-10-16T07:58:16.384Z,15.80
2022-10-16T07:59:16.856Z,15.81
2022-10-16T08:00:16.333Z,15.81
2022-10-16T08:01:16.821Z,15.90
2022-10-16T08:02:17.258Z,15.92
2022-10-16T08:03:16.714Z,16.01
2022-10-16T08:04:17.144Z,16.01
2022-10-16T08:05:16.574Z,16.09
2022-10-16T08:06:17.020Z,16.05
2022-10-16T08:07:16.443Z,16.11
2022-10-16T08:08:16.925Z,16.09
2022-10-16T08:09:16.424Z,16.17
2022-10-16T08:10:16.907Z,16.18
2022-10-16T08:11:16.422Z,16.18
2022-10-16T08:12:17.213Z,16.22
2022-10-16T08:13:16.683Z,16.19
2022-10-16T08:14:17.210Z,16.22
2022-10-16T08:15:16.667Z,16.19
2022-10-16T08:16:17.094Z,16.21
2022-10-16T08:17:16.560Z,16.19
2022-10-16T08:18:16.996Z,16.18
2022-10-16T08:19:16.419Z,16.17
2022-10-16T08:20:16.877Z,16.18
2022-10-16T08:21:18.530Z,16.19
2022-10-16T08:22:16.996Z,16.19
2022-10-16T08:23:16.482Z,16.28
2022-10-16T08:24:16.931Z,16.25
2022-10-16T08:25:16.398Z,16.29
2022-10-16T08:26:16.883Z,16.42
2022-10-16T08:27:16.350Z,16.46
2022-10-16T08:28:16.804Z,16.56
2022-10-16T08:29:17.272Z,16.57
2022-10-16T08:30:16.752Z,16.67
2022-10-16T08:32:16.685Z,16.66
2022-10-16T08:33:17.163Z,16.73
2022-10-16T08:34:16.605Z,16.80
2022-10-16T08:35:17.067Z,16.76
2022-10-16T08:36:16.488Z,16.78
2022-10-16T08:37:16.920Z,16.90
2022-10-16T08:38:16.379Z,16.87
2022-10-16T08:39:16.822Z,16.97
2022-10-16T08:40:17.319Z,17.07
2022-10-16T08:41:16.892Z,17.08
2022-10-16T08:42:16.639Z,17.15
2022-10-16T08:43:17.103Z,17.14
2022-10-16T08:44:16.577Z,17.13
2022-10-16T08:45:17.029Z,17.19
2022-10-16T08:46:16.458Z,17.26
2022-10-16T08:47:16.920Z,17.29
2022-10-16T08:48:16.354Z,17.21
2022-10-16T08:49:16.807Z,17.25
2022-10-16T08:50:17.235Z,17.32
2022-10-16T08:51:16.718Z,17.36
2022-10-16T08:52:17.007Z,17.24
2022-10-16T08:53:16.443Z,17.33
2022-10-16T08:54:16.904Z,17.28
2022-10-16T08:55:16.361Z,17.32
2022-10-16T08:56:16.854Z,17.38
2022-10-16T08:57:19.757Z,17.42
2022-10-16T08:58:16.912Z,17.46
2022-10-16T08:59:16.372Z,17.46
2022-10-16T09:00:16.825Z,17.42
2022-10-16T09:01:17.334Z,17.49
2022-10-16T09:02:16.824Z,17.41
2022-10-16T09:03:17.290Z,17.54
2022-10-16T09:04:16.712Z,17.52
2022-10-16T09:05:17.132Z,17.53
2022-10-16T09:06:16.615Z,17.57
2022-10-16T09:07:17.080Z,17.52
2022-10-16T09:08:16.567Z,17.60
2022-10-16T09:09:17.027Z,17.70
2022-10-16T09:10:16.490Z,17.63
2022-10-16T09:11:16.989Z,17.65
2022-10-16T09:12:16.307Z,17.80
2022-10-16T09:13:16.760Z,17.84
2022-10-16T09:14:17.219Z,17.89
2022-10-16T09:15:16.640Z,17.98
2022-10-16T09:16:17.095Z,17.90
2022-10-16T09:17:16.526Z,17.89
2022-10-16T09:18:17.004Z,17.94
2022-10-16T09:19:16.444Z,17.90
2022-10-16T09:20:16.884Z,17.94
2022-10-16T09:21:16.332Z,17.79
2022-10-16T09:22:16.436Z,17.80
2022-10-16T09:23:16.937Z,17.77
2022-10-16T09:24:16.393Z,18.00
2022-10-16T09:25:16.861Z,18.03
2022-10-16T09:26:16.398Z,18.05
2022-10-16T09:27:16.965Z,18.10
2022-10-16T09:28:16.433Z,18.05
2022-10-16T09:29:16.861Z,18.12
2022-10-16T09:30:16.282Z,18.05
2022-10-16T09:31:16.728Z,18.00
2022-10-16T09:32:16.413Z,18.11
2022-10-16T09:33:16.884Z,18.17
2022-10-16T09:34:16.336Z,18.17
2022-10-16T09:35:16.806Z,18.08
2022-10-16T09:36:17.273Z,17.98
2022-10-16T09:37:16.734Z,17.98
2022-10-16T09:38:17.217Z,17.94
2022-10-16T09:39:16.708Z,17.87
2022-10-16T09:40:17.210Z,17.86
2022-10-16T09:41:16.679Z,17.83
2022-10-16T09:42:16.561Z,17.84
2022-10-16T09:43:16.997Z,17.81
2022-10-16T09:44:16.475Z,17.76
2022-10-16T09:45:16.961Z,17.73
2022-10-16T09:46:16.382Z,17.76
2022-10-16T09:47:16.804Z,17.87
2022-10-16T09:48:17.282Z,17.80
2022-10-16T09:49:16.718Z,17.89
2022-10-16T09:50:17.319Z,17.83
2022-10-16T09:51:16.897Z,17.79
2022-10-16T09:52:17.227Z,17.90
2022-10-16T09:53:16.688Z,17.84
2022-10-16T09:54:17.141Z,17.80
2022-10-16T09:55:16.594Z,17.73
2022-10-16T09:56:17.068Z,17.86
2022-10-16T09:57:16.506Z,17.76
2022-10-16T09:58:16.951Z,17.79
2022-10-16T09:59:16.408Z,17.84
2022-10-16T10:00:16.909Z,17.86
2022-10-16T10:01:16.427Z,17.86
2022-10-16T10:02:17.038Z,17.93
2022-10-16T10:03:16.475Z,17.97
2022-10-16T10:04:16.895Z,18.14
2022-10-16T10:05:16.331Z,18.25
2022-10-16T10:06:16.840Z,18.33
2022-10-16T10:07:17.291Z,18.33
2022-10-16T10:08:16.792Z,18.36
2022-10-16T10:09:17.257Z,18.38
2022-10-16T10:10:16.752Z,18.31
2022-10-16T10:11:17.238Z,18.35
2022-10-16T10:12:16.515Z,18.45
2022-10-16T10:13:16.963Z,18.41
2022-10-16T10:14:16.449Z,18.41
2022-10-16T10:15:16.898Z,18.40
2022-10-16T10:16:16.339Z,18.56
2022-10-16T10:17:16.791Z,18.47
2022-10-16T10:18:17.245Z,18.52
2022-10-16T10:19:16.684Z,18.52
2022-10-16T10:20:17.165Z,18.52
2022-10-16T10:21:16.652Z,18.59
2022-10-16T10:22:16.804Z,18.56
2022-10-16T10:23:17.291Z,18.59
2022-10-16T10:24:16.749Z,18.60
2022-10-16T10:25:17.242Z,18.66
2022-10-16T10:26:16.735Z,18.59
2022-10-16T10:27:17.175Z,18.59
2022-10-16T10:28:16.735Z,18.69
2022-10-16T10:29:17.171Z,18.55
2022-10-16T10:31:17.045Z,18.73
2022-10-16T10:32:16.739Z,18.79
2022-10-16T10:33:17.236Z,18.79
2022-10-16T10:34:16.756Z,18.82
2022-10-16T10:35:17.239Z,18.95
2022-10-16T10:36:16.697Z,18.88
2022-10-16T10:37:17.218Z,18.83
2022-10-16T10:38:16.700Z,18.88
2022-10-16T10:39:17.189Z,18.91
2022-10-16T10:40:16.735Z,18.88
2022-10-16T10:41:17.186Z,18.95
2022-10-16T10:42:16.367Z,19.08
2022-10-16T10:43:16.812Z,19.03
2022-10-16T10:44:17.238Z,19.00
2022-10-16T10:45:16.692Z,18.95
2022-10-16T10:46:17.181Z,18.84
2022-10-16T10:47:16.638Z,18.84
2022-10-16T10:48:17.153Z,18.73
2022-10-16T10:49:16.780Z,18.72
2022-10-16T10:50:17.253Z,18.67
2022-10-16T10:51:16.700Z,18.73
2022-10-16T10:52:16.373Z,18.72
2022-10-16T10:53:16.853Z,18.87
2022-10-16T10:54:16.356Z,18.88
2022-10-16T10:55:16.839Z,19.01
2022-10-16T10:56:16.293Z,18.98
2022-10-16T10:57:16.754Z,19.10
2022-10-16T10:58:17.265Z,19.10
2022-10-16T10:59:16.714Z,19.27
2022-10-16T11:00:17.138Z,19.30
2022-10-16T11:01:16.600Z,19.25
2022-10-16T11:02:17.206Z,19.11
2022-10-16T11:03:16.782Z,19.11
2022-10-16T11:04:17.246Z,19.34
2022-10-16T11:05:16.741Z,19.21
2022-10-16T11:06:17.237Z,19.30
2022-10-16T11:07:16.702Z,19.45
2022-10-16T11:08:17.189Z,19.56
2022-10-16T11:09:16.687Z,19.53
2022-10-16T11:10:17.150Z,19.39
2022-10-16T11:11:16.576Z,19.48
2022-10-16T11:12:17.011Z,19.22
2022-10-16T11:13:16.464Z,19.11
2022-10-16T11:14:16.908Z,19.13
2022-10-16T11:15:16.343Z,19.41
2022-10-16T11:16:18.926Z,19.42
2022-10-16T11:17:17.197Z,19.55
2022-10-16T11:18:16.632Z,19.51
2022-10-16T11:19:17.110Z,19.41
2022-10-16T11:20:16.606Z,19.53
2022-10-16T11:21:17.058Z,19.31
2022-10-16T11:22:16.703Z,19.41
2022-10-16T11:23:17.196Z,19.27
2022-10-16T11:24:16.666Z,19.31
2022-10-16T11:25:17.135Z,19.30
2022-10-16T11:26:16.565Z,19.32
2022-10-16T11:27:16.980Z,19.37
2022-10-16T11:28:16.454Z,19.42
2022-10-16T11:29:16.912Z,19.42
2022-10-16T11:30:16.463Z,19.41
2022-10-16T11:31:16.905Z,19.41
2022-10-16T11:32:16.576Z,19.35
2022-10-16T11:33:17.018Z,19.34
2022-10-16T11:34:16.504Z,19.39
2022-10-16T11:35:17.012Z,19.39
2022-10-16T11:36:16.493Z,19.37
2022-10-16T11:37:16.942Z,19.34
2022-10-16T11:38:16.405Z,19.34
2022-10-16T11:39:16.908Z,19.34
2022-10-16T11:40:16.373Z,19.38
2022-10-16T11:41:16.795Z,19.35
2022-10-16T11:42:16.567Z,19.35
2022-10-16T11:43:16.990Z,19.39
2022-10-16T11:44:16.437Z,19.45
2022-10-16T11:45:16.875Z,19.45
2022-10-16T11:46:16.306Z,19.46
2022-10-16T11:47:47.064Z,19.52
2022-10-16T11:48:17.284Z,19.62
2022-10-16T11:49:16.748Z,19.56
2022-10-16T11:50:17.709Z,19.62
2022-10-16T11:51:17.260Z,19.58
2022-10-16T11:52:17.079Z,19.56
2022-10-16T11:53:16.829Z,19.56
2022-10-16T11:54:17.289Z,19.58
2022-10-16T11:55:17.001Z,19.60
2022-10-16T11:56:16.438Z,19.65
2022-10-16T11:57:16.877Z,19.74
2022-10-16T11:58:16.310Z,19.76
2022-10-16T11:59:16.746Z,19.87
2022-10-16T12:00:17.214Z,19.94
2022-10-16T12:01:16.660Z,20.06
2022-10-16T12:02:16.975Z,20.17
2022-10-16T12:03:16.517Z,20.21
2022-10-16T12:04:17.081Z,20.28
2022-10-16T12:05:16.579Z,20.25
2022-10-16T12:06:17.082Z,20.23
2022-10-16T12:07:16.547Z,20.29
2022-10-16T12:08:17.018Z,20.28
2022-10-16T12:09:16.525Z,20.23
2022-10-16T12:10:16.999Z,20.18
2022-10-16T12:11:16.527Z,20.27
2022-10-16T12:12:16.963Z,20.44
2022-10-16T12:13:16.404Z,20.46
2022-10-16T12:14:16.850Z,20.75
2022-10-16T12:15:22.177Z,20.92
2022-10-16T12:16:17.251Z,21.03
2022-10-16T12:17:16.740Z,21.02
2022-10-16T12:18:17.220Z,21.05
2022-10-16T12:19:16.672Z,21.14
2022-10-16T12:20:17.132Z,21.26
2022-10-16T12:21:16.613Z,21.14
2022-10-16T12:22:17.217Z,20.96
2022-10-16T12:23:16.709Z,20.87
2022-10-16T12:24:17.163Z,21.14
2022-10-16T12:25:16.612Z,21.40
2022-10-16T12:26:17.035Z,21.15
2022-10-16T12:27:16.476Z,21.07
2022-10-16T12:28:16.956Z,21.25
2022-10-16T12:29:16.394Z,21.20
2022-10-16T12:30:16.862Z,20.89
2022-10-16T12:31:16.346Z,20.83
2022-10-16T12:32:24.167Z,20.84
2022-10-16T12:33:16.320Z,20.71
2022-10-16T12:34:16.790Z,20.71
2022-10-16T12:35:17.310Z,20.71
2022-10-16T12:36:16.812Z,20.79
2022-10-16T12:37:17.286Z,20.94
2022-10-16T12:38:16.750Z,20.97
2022-10-16T12:39:17.204Z,20.84
2022-10-16T12:40:16.653Z,20.84
2022-10-16T12:41:17.076Z,20.75
2022-10-16T12:42:16.815Z,20.73
2022-10-16T12:43:17.291Z,20.79
2022-10-16T12:44:16.733Z,21.09
2022-10-16T12:45:17.179Z,20.97
2022-10-16T12:46:16.661Z,20.93
2022-10-16T12:48:16.379Z,20.86
2022-10-16T12:49:16.868Z,20.79
2022-10-16T12:50:17.439Z,20.83
2022-10-16T12:51:17.035Z,20.73
2022-10-16T12:52:16.356Z,20.76
2022-10-16T12:53:16.789Z,20.73
2022-10-16T12:54:17.213Z,20.80
2022-10-16T12:55:16.677Z,20.85
2022-10-16T12:56:17.169Z,20.82